createdAt,value
2023-01-23T00:00:15.804Z,97342.50
2023-01-23T00:02:43.740Z,97365.69
2023-01-23T00:05:12.197Z,97348.34
2023-01-23T00:07:41.398Z,97364.38
2023-01-23T00:10:10.668Z,97349.84
2023-01-23T00:12:38.520Z,97361.88
2023-01-23T00:15:07.713Z,97341.69
2023-01-23T00:17:35.520Z,97342.81
2023-01-23T00:20:04.445Z,97347.34
2023-01-23T00:22:32.313Z,97339.59
2023-01-23T00:25:01.482Z,97337.56
2023-01-23T00:27:29.531Z,97353.72
2023-01-23T00:29:57.364Z,97345.91
2023-01-23T00:32:25.197Z,97337.63
2023-01-23T00:34:53.021Z,97331.84
2023-01-23T00:37:20.882Z,97342.06
2023-01-23T00:39:50.911Z,97342.94
2023-01-23T00:42:20.102Z,97345.72
2023-01-23T00:44:47.892Z,97342.81
2023-01-23T00:47:15.792Z,97351.16
2023-01-23T00:49:43.583Z,97349.03
2023-01-23T00:52:11.387Z,97356.09
2023-01-23T00:54:39.416Z,97339.34
2023-01-23T00:57:07.287Z,97338.66
2023-01-23T00:59:36.610Z,97346.34
2023-01-23T01:02:04.852Z,97347.09
2023-01-23T01:04:32.595Z,97349.31
2023-01-23T01:07:00.597Z,97349.56
2023-01-23T01:09:28.693Z,97359.56
2023-01-23T01:11:56.600Z,97339.13
2023-01-23T01:14:24.489Z,97353.72
2023-01-23T01:16:53.771Z,97367.09
2023-01-23T01:19:21.526Z,97376.69
2023-01-23T01:21:49.377Z,97365.88
2023-01-23T01:24:17.124Z,97357.41
2023-01-23T01:26:44.903Z,97371.81
2023-01-23T01:29:12.680Z,97365.94
2023-01-23T01:31:40.989Z,97366.59
2023-01-23T01:34:10.208Z,97368.19
2023-01-23T01:36:37.994Z,97366.75
2023-01-23T01:39:05.801Z,97367.06
2023-01-23T01:41:33.576Z,97372.59
2023-01-23T01:44:01.560Z,97380.47
2023-01-23T01:46:29.975Z,97381.19
2023-01-23T01:49:07.537Z,97372.41
2023-01-23T01:51:39.896Z,97368.38
2023-01-23T01:54:14.650Z,97355.28
2023-01-23T01:56:48.993Z,97343.47
2023-01-23T01:59:19.046Z,97355.94
2023-01-23T02:01:51.811Z,97352.94
2023-01-23T02:04:20.198Z,97350.19
2023-01-23T02:06:51.886Z,97352.25
2023-01-23T02:09:25.639Z,97358.06
2023-01-23T02:11:54.212Z,97360.53
2023-01-23T02:14:24.433Z,97346.91
2023-01-23T02:16:52.920Z,97360.19
2023-01-23T02:19:38.610Z,97353.31
2023-01-23T02:22:19.243Z,97355.09
2023-01-23T02:24:55.833Z,97355.81
2023-01-23T02:27:25.025Z,97351.38
2023-01-23T02:29:56.190Z,97346.09
2023-01-23T02:32:25.619Z,97343.00
2023-01-23T02:34:56.026Z,97343.88
2023-01-23T02:37:30.137Z,97343.78
2023-01-23T02:39:57.947Z,97338.03
2023-01-23T02:42:27.499Z,97321.00
2023-01-23T02:44:56.778Z,97336.09
2023-01-23T02:47:25.400Z,97336.31
2023-01-23T02:49:53.347Z,97335.91
2023-01-23T02:52:21.146Z,97335.44
2023-01-23T02:54:48.908Z,97342.41
2023-01-23T02:57:16.768Z,97346.16
2023-01-23T03:00:03.545Z,97333.31
2023-01-23T03:02:31.706Z,97354.31
2023-01-23T03:04:59.484Z,97360.44
2023-01-23T03:07:27.257Z,97348.53
2023-01-23T03:09:55.018Z,97352.16
2023-01-23T03:12:22.802Z,97346.91
2023-01-23T03:14:54.845Z,97350.03
2023-01-23T03:17:22.867Z,97346.09
2023-01-23T03:19:50.725Z,97344.47
2023-01-23T03:22:18.697Z,97359.59
2023-01-23T03:24:46.698Z,97355.75
2023-01-23T03:27:14.529Z,97344.41
2023-01-23T03:29:59.910Z,97343.59
2023-01-23T03:32:29.433Z,97359.44
2023-01-23T03:34:57.378Z,97364.09
2023-01-23T03:37:25.140Z,97354.69
2023-01-23T03:40:10.339Z,97358.00
2023-01-23T03:42:38.197Z,97364.09
2023-01-23T03:45:06.950Z,97356.34
2023-01-23T03:47:36.263Z,97357.50
2023-01-23T03:50:04.609Z,97361.06
2023-01-23T03:52:32.776Z,97352.53
2023-01-23T03:55:00.540Z,97351.84
2023-01-23T03:57:28.466Z,97359.03
2023-01-23T03:59:56.301Z,97359.03
2023-01-23T04:02:24.726Z,97356.50
2023-01-23T04:04:53.921Z,97361.16
2023-01-23T04:07:21.742Z,97358.31
2023-01-23T04:09:49.953Z,97361.63
2023-01-23T04:12:18.041Z,97359.28
2023-01-23T04:14:45.849Z,97358.84
2023-01-23T04:17:13.695Z,97361.75
2023-01-23T04:19:41.578Z,97359.88
2023-01-23T04:22:10.877Z,97364.84
2023-01-23T04:24:38.694Z,97363.19
2023-01-23T04:27:06.452Z,97358.81
2023-01-23T04:29:34.396Z,97367.91
2023-01-23T04:32:02.375Z,97368.34
2023-01-23T04:34:30.234Z,97369.88
2023-01-23T04:36:58.159Z,97374.84
2023-01-23T04:39:27.377Z,97376.34
2023-01-23T04:41:55.103Z,97379.53
2023-01-23T04:44:23.001Z,97381.72
2023-01-23T04:46:53.051Z,97373.72
2023-01-23T04:49:21.793Z,97380.63
2023-01-23T04:51:50.221Z,97371.78
2023-01-23T04:54:19.284Z,97374.41
2023-01-23T04:56:49.092Z,97376.50
2023-01-23T04:59:17.756Z,97381.88
2023-01-23T05:01:45.907Z,97361.84
2023-01-23T05:04:14.149Z,97375.09
2023-01-23T05:06:42.060Z,97367.66
2023-01-23T05:09:09.889Z,97362.53
2023-01-23T05:11:37.619Z,97374.28
2023-01-23T05:14:07.047Z,97368.19
2023-01-23T05:16:34.932Z,97365.72
2023-01-23T05:19:02.762Z,97367.78
2023-01-23T05:21:30.556Z,97367.66
2023-01-23T05:23:58.317Z,97370.69
2023-01-23T05:26:26.034Z,97364.91
2023-01-23T05:28:53.929Z,97374.53
2023-01-23T05:31:23.109Z,97370.28
2023-01-23T05:33:50.907Z,97367.91
2023-01-23T05:36:18.830Z,97389.06
2023-01-23T05:38:46.800Z,97390.28
2023-01-23T05:41:14.606Z,97387.81
2023-01-23T05:43:42.408Z,97391.81
2023-01-23T05:46:10.199Z,97378.16
2023-01-23T05:48:39.341Z,97402.19
2023-01-23T05:51:07.342Z,97409.66
2023-01-23T05:53:35.337Z,97410.47
2023-01-23T05:56:06.957Z,97416.13
2023-01-23T05:58:34.810Z,97410.88
2023-01-23T06:01:03.580Z,97418.75
2023-01-23T06:03:31.801Z,97420.13
2023-01-23T06:06:02.290Z,97418.44
2023-01-23T06:08:30.465Z,97404.66
2023-01-23T06:10:59.738Z,97424.13
2023-01-23T06:13:27.964Z,97415.03
2023-01-23T06:15:56.683Z,97404.09
2023-01-23T06:18:25.434Z,97414.59
2023-01-23T06:21:00.933Z,97415.72
2023-01-23T06:23:29.403Z,97412.94
2023-01-23T06:26:00.639Z,97423.56
2023-01-23T06:28:28.396Z,97420.69
2023-01-23T06:30:56.636Z,97416.84
2023-01-23T06:33:24.473Z,97413.38
2023-01-23T06:36:00.181Z,97409.66
2023-01-23T06:38:28.412Z,97427.03
2023-01-23T06:40:56.413Z,97425.09
2023-01-23T06:43:25.195Z,97412.78
2023-01-23T06:45:53.003Z,97435.59
2023-01-23T06:48:20.919Z,97440.16
2023-01-23T06:50:48.947Z,97439.91
2023-01-23T06:53:19.410Z,97422.34
2023-01-23T06:55:47.689Z,97436.97
2023-01-23T06:58:15.478Z,97442.22
2023-01-23T07:00:44.594Z,97438.63
2023-01-23T07:03:13.205Z,97429.25
2023-01-23T07:05:43.295Z,97425.66
2023-01-23T07:08:11.571Z,97426.19
2023-01-23T07:10:41.325Z,97432.00
2023-01-23T07:13:11.170Z,97427.16
2023-01-23T07:15:41.010Z,97422.91
2023-01-23T07:18:10.085Z,97423.97
2023-01-23T07:20:38.493Z,97423.97
2023-01-23T07:23:06.403Z,97429.22
2023-01-23T07:25:34.335Z,97422.91
2023-01-23T07:28:03.552Z,97440.00
2023-01-23T07:30:31.316Z,97438.09
2023-01-23T07:32:59.311Z,97440.28
2023-01-23T07:35:27.592Z,97440.16
2023-01-23T07:37:55.397Z,97449.16
2023-01-23T07:40:24.606Z,97442.81
2023-01-23T07:42:52.418Z,97453.84
2023-01-23T07:45:21.589Z,97449.97
2023-01-23T07:47:49.364Z,97450.53
2023-01-23T07:50:17.241Z,97463.38
2023-01-23T07:52:44.993Z,97456.34
2023-01-23T07:55:12.968Z,97456.19
2023-01-23T07:57:40.876Z,97457.56
2023-01-23T08:00:10.734Z,97450.53
2023-01-23T08:02:40.051Z,97458.94
2023-01-23T08:05:08.920Z,97455.75
2023-01-23T08:07:36.674Z,97460.75
2023-01-23T08:10:04.778Z,97462.69
2023-01-23T08:12:32.676Z,97462.53
2023-01-23T08:15:00.460Z,97451.19
2023-01-23T08:17:28.375Z,97438.94
2023-01-23T08:19:57.587Z,97444.44
2023-01-23T08:22:25.373Z,97436.81
2023-01-23T08:24:53.176Z,97437.53
2023-01-23T08:27:21.078Z,97441.94
2023-01-23T08:29:48.932Z,97446.06
2023-01-23T08:32:16.866Z,97441.69
2023-01-23T08:34:44.595Z,97424.25
2023-01-23T08:37:13.761Z,97420.63
2023-01-23T08:39:42.173Z,97414.97
2023-01-23T08:42:10.142Z,97409.56
2023-01-23T08:44:37.866Z,97427.78
2023-01-23T08:47:05.712Z,97428.50
2023-01-23T08:49:33.459Z,97426.44
2023-01-23T08:52:01.311Z,97422.03
2023-01-23T08:54:30.520Z,97416.91
2023-01-23T08:56:58.789Z,97423.50
2023-01-23T08:59:26.682Z,97412.75
2023-01-23T09:01:54.483Z,97417.88
2023-01-23T09:04:22.256Z,97423.66
2023-01-23T09:06:49.966Z,97425.19
2023-01-23T09:09:18.328Z,97423.50
2023-01-23T09:11:47.556Z,97430.44
2023-01-23T09:14:15.267Z,97427.53
2023-01-23T09:16:43.117Z,97422.03
2023-01-23T09:19:12.720Z,97424.06
2023-01-23T09:21:40.850Z,97427.94
2023-01-23T09:24:09.333Z,97415.63
2023-01-23T09:26:37.635Z,97432.75
2023-01-23T09:29:07.000Z,97424.31
2023-01-23T09:31:34.963Z,97417.41
2023-01-23T09:34:03.891Z,97422.41
2023-01-23T09:36:42.453Z,97423.47
2023-01-23T09:39:11.233Z,97421.28
2023-01-23T09:41:40.217Z,97425.78
2023-01-23T09:44:16.730Z,97428.56
2023-01-23T09:46:48.914Z,97422.47
2023-01-23T09:49:25.839Z,97419.03
2023-01-23T09:51:59.892Z,97414.03
2023-01-23T09:54:35.642Z,97414.56
2023-01-23T09:57:13.206Z,97417.66
2023-01-23T09:59:59.835Z,97422.06
2023-01-23T10:02:28.048Z,97412.78
2023-01-23T10:04:58.089Z,97415.63
2023-01-23T10:07:49.427Z,97393.09
2023-01-23T10:10:41.777Z,97401.78
2023-01-23T10:13:14.295Z,97403.22
2023-01-23T10:16:05.633Z,97396.75
2023-01-23T10:18:38.350Z,97385.66
2023-01-23T10:21:18.161Z,97396.31
2023-01-23T10:23:53.238Z,97389.63
2023-01-23T10:26:24.352Z,97391.13
2023-01-23T10:28:57.681Z,97376.41
2023-01-23T10:31:34.750Z,97389.63
2023-01-23T10:34:14.294Z,97385.25
2023-01-23T10:36:54.942Z,97363.84
2023-01-23T10:39:28.799Z,97371.38
2023-01-23T10:42:02.487Z,97374.22
2023-01-23T10:44:31.121Z,97369.75
2023-01-23T10:47:03.777Z,97372.69
2023-01-23T10:49:35.403Z,97376.97
2023-01-23T10:52:03.651Z,97364.88
2023-01-23T10:54:33.185Z,97355.09
2023-01-23T10:57:03.080Z,97371.84
2023-01-23T10:59:35.530Z,97353.16
2023-01-23T11:02:23.011Z,97360.88
2023-01-23T11:04:52.862Z,97358.63
2023-01-23T11:07:23.515Z,97348.06
2023-01-23T11:09:57.431Z,97334.66
2023-01-23T11:12:27.743Z,97349.69
2023-01-23T11:15:14.748Z,97349.94
2023-01-23T11:17:44.636Z,97335.88
2023-01-23T11:20:23.380Z,97329.09
2023-01-23T11:23:01.949Z,97336.19
2023-01-23T11:25:32.013Z,97342.34
2023-01-23T11:28:01.764Z,97343.00
2023-01-23T11:30:42.484Z,97329.78
2023-01-23T11:33:27.499Z,97316.72
2023-01-23T11:36:03.476Z,97319.31
2023-01-23T11:38:37.731Z,97312.41
2023-01-23T11:41:13.057Z,97304.06
2023-01-23T11:43:41.670Z,97306.63
2023-01-23T11:46:34.476Z,97309.72
2023-01-23T11:49:20.567Z,97301.50
2023-01-23T11:51:56.797Z,97277.78
2023-01-23T11:54:45.239Z,97285.28
2023-01-23T11:57:19.797Z,97287.53
2023-01-23T12:00:02.225Z,97291.44
2023-01-23T12:02:58.632Z,97279.78
2023-01-23T12:05:46.532Z,97275.94
2023-01-23T12:08:27.228Z,97273.69
2023-01-23T12:11:10.728Z,97267.75
2023-01-23T12:13:57.023Z,97265.78
2023-01-23T12:16:35.764Z,97268.13
2023-01-23T12:19:18.296Z,97265.66
2023-01-23T12:21:56.160Z,97259.88
2023-01-23T12:24:36.258Z,97260.53
2023-01-23T12:27:15.941Z,97264.56
2023-01-23T12:30:17.202Z,97248.34
2023-01-23T12:33:00.217Z,97246.72
2023-01-23T12:35:36.742Z,97257.44
2023-01-23T12:38:16.868Z,97245.16
2023-01-23T12:40:48.705Z,97244.13
2023-01-23T12:43:23.069Z,97233.38
2023-01-23T12:45:59.903Z,97248.75
2023-01-23T12:48:33.400Z,97233.19
2023-01-23T12:51:07.564Z,97239.75
2023-01-23T12:53:42.168Z,97247.41
2023-01-23T12:56:15.385Z,97233.44
2023-01-23T12:58:49.358Z,97241.03
2023-01-23T13:01:41.929Z,97239.59
2023-01-23T13:04:25.069Z,97242.84
2023-01-23T13:07:04.359Z,97242.69
2023-01-23T13:09:50.911Z,97241.34
2023-01-23T13:12:22.804Z,97241.84
2023-01-23T13:15:14.230Z,97243.00
2023-01-23T13:17:44.232Z,97248.47
2023-01-23T13:20:42.290Z,97237.00
2023-01-23T13:23:24.767Z,97249.94
2023-01-23T13:26:36.950Z,97240.53
2023-01-23T13:29:07.568Z,97249.34
2023-01-23T13:31:40.598Z,97243.94
2023-01-23T13:34:38.055Z,97252.59
2023-01-23T13:37:51.350Z,97245.59
2023-01-23T13:40:22.848Z,97250.75
2023-01-23T13:42:52.316Z,97249.59
2023-01-23T13:45:27.476Z,97247.75
2023-01-23T14:22:45.952Z,97216.66
2023-01-23T14:25:18.656Z,97237.53
2023-01-23T14:27:53.681Z,97235.59
2023-01-23T14:30:26.785Z,97222.97
2023-01-23T14:32:58.259Z,97217.88
2023-01-23T14:35:28.206Z,97221.00
2023-01-23T14:37:59.133Z,97227.25
2023-01-23T14:40:31.791Z,97232.88
2023-01-23T14:43:07.855Z,97223.78
2023-01-23T14:45:36.736Z,97211.25
2023-01-23T14:48:08.576Z,97231.03
2023-01-23T14:50:36.723Z,97229.66
2023-01-23T14:53:07.598Z,97224.03
2023-01-23T14:55:40.717Z,97226.84
2023-01-23T14:58:14.845Z,97225.69
2023-01-23T15:00:43.432Z,97220.59
2023-01-23T15:03:34.333Z,97243.81
2023-01-23T15:06:07.121Z,97231.13
2023-01-23T15:08:36.048Z,97204.47
2023-01-23T15:11:06.505Z,97242.78
2023-01-23T15:13:41.715Z,97234.19
2023-01-23T15:16:15.572Z,97244.22
2023-01-23T15:18:54.293Z,97234.25
2023-01-23T15:21:34.680Z,97237.03
2023-01-23T15:24:20.372Z,97241.66
2023-01-23T15:26:59.219Z,97242.88
2023-01-23T15:29:27.132Z,97245.63
2023-01-23T15:31:56.237Z,97249.72
2023-01-23T15:34:28.350Z,97254.03
2023-01-23T15:37:05.371Z,97243.22
2023-01-23T15:39:36.087Z,97239.22
2023-01-23T15:42:09.503Z,97251.09
2023-01-23T15:44:37.337Z,97245.16
2023-01-23T15:47:05.275Z,97247.81
2023-01-23T15:49:36.150Z,97248.09
2023-01-23T15:52:18.259Z,97252.06
2023-01-23T15:54:46.525Z,97250.09
2023-01-23T15:57:15.222Z,97248.78
2023-01-23T15:59:43.285Z,97255.06
2023-01-23T16:02:29.667Z,97247.00
2023-01-23T16:05:01.065Z,97249.78
2023-01-23T16:07:34.815Z,97241.59
2023-01-23T16:10:04.268Z,97241.09
2023-01-23T16:12:32.843Z,97248.16
2023-01-23T16:15:00.719Z,97254.69
2023-01-23T16:17:28.540Z,97243.88
2023-01-23T16:19:56.325Z,97241.38
2023-01-23T16:22:29.214Z,97242.88
2023-01-23T16:24:58.728Z,97248.94
2023-01-23T16:27:27.916Z,97246.16
2023-01-23T16:29:56.902Z,97253.78
2023-01-23T16:32:25.257Z,97253.56
2023-01-23T16:34:53.106Z,97252.63
2023-01-23T16:37:20.971Z,97258.06
2023-01-23T16:39:50.149Z,97256.91
2023-01-23T16:42:21.740Z,97261.03
2023-01-23T16:44:49.650Z,97256.25
2023-01-23T16:47:17.838Z,97255.78
2023-01-23T16:49:54.189Z,97251.16
2023-01-23T16:52:25.701Z,97248.84
2023-01-23T16:54:55.941Z,97245.22
2023-01-23T16:57:24.661Z,97260.41
2023-01-23T16:59:53.200Z,97253.66
2023-01-23T17:02:23.802Z,97252.34
2023-01-23T17:04:51.788Z,97250.72
2023-01-23T17:07:21.188Z,97256.78
2023-01-23T17:09:49.350Z,97252.84
2023-01-23T17:12:22.983Z,97257.13
2023-01-23T17:14:52.744Z,97256.66
2023-01-23T17:17:27.011Z,97256.69
2023-01-23T17:19:55.178Z,97258.00
2023-01-23T17:22:26.311Z,97255.88
2023-01-23T17:24:54.693Z,97269.75
2023-01-23T17:27:23.937Z,97252.88
2023-01-23T17:29:51.892Z,97250.56
2023-01-23T17:32:27.901Z,97259.97
2023-01-23T17:34:56.320Z,97260.75
2023-01-23T17:37:24.898Z,97262.41
2023-01-23T17:39:52.912Z,97270.38
2023-01-23T17:42:21.999Z,97265.75
2023-01-23T17:44:51.209Z,97273.50
2023-01-23T17:47:19.529Z,97252.22
2023-01-23T17:49:51.152Z,97284.56
2023-01-23T17:52:20.415Z,97278.59
2023-01-23T17:54:48.630Z,97288.47
2023-01-23T17:57:16.466Z,97281.22
2023-01-23T17:59:44.332Z,97269.03
2023-01-23T18:02:25.129Z,97281.59
2023-01-23T18:04:53.030Z,97283.44
2023-01-23T18:07:20.781Z,97290.53
2023-01-23T18:09:48.566Z,97279.16
2023-01-23T18:12:22.158Z,97288.88
2023-01-23T18:14:57.432Z,97291.53
2023-01-23T18:17:37.672Z,97278.84
2023-01-23T18:20:17.551Z,97288.56
2023-01-23T18:22:45.896Z,97286.75
2023-01-23T18:25:15.698Z,97278.00
2023-01-23T18:27:43.958Z,97285.28
2023-01-23T18:30:31.223Z,97280.44
2023-01-23T18:33:19.812Z,97289.91
2023-01-23T18:36:12.436Z,97289.75
2023-01-23T18:38:54.723Z,97291.84
2023-01-23T18:41:24.899Z,97280.78
2023-01-23T18:44:02.443Z,97280.00
2023-01-23T18:46:30.655Z,97298.66
2023-01-23T18:49:00.794Z,97296.50
2023-01-23T18:51:38.428Z,97280.50
2023-01-23T18:54:21.179Z,97284.63
2023-01-23T18:56:58.920Z,97282.50
2023-01-23T18:59:37.348Z,97302.34
2023-01-23T19:02:17.588Z,97303.13
2023-01-23T19:04:52.655Z,97296.38
2023-01-23T19:07:21.199Z,97302.44
2023-01-23T19:09:49.568Z,97299.97
2023-01-23T19:12:28.200Z,97312.00
2023-01-23T19:15:20.320Z,97303.72
2023-01-23T19:17:52.429Z,97309.34
2023-01-23T19:20:23.939Z,97305.91
2023-01-23T19:23:03.207Z,97313.34
2023-01-23T19:25:31.575Z,97304.34
2023-01-23T19:28:01.722Z,97309.41
2023-01-23T19:30:30.398Z,97308.34
2023-01-23T19:32:58.196Z,97312.84
2023-01-23T19:35:27.639Z,97317.66
2023-01-23T19:37:55.745Z,97308.38
2023-01-23T19:40:23.575Z,97308.38
2023-01-23T19:43:05.696Z,97313.88
2023-01-23T19:45:41.152Z,97308.91
2023-01-23T19:48:08.990Z,97320.47
2023-01-23T19:50:38.822Z,97299.66
2023-01-23T19:53:07.169Z,97326.75
2023-01-23T19:55:38.136Z,97307.41
2023-01-23T19:58:06.567Z,97326.53
2023-01-23T20:00:36.170Z,97317.78
2023-01-23T20:03:04.912Z,97323.75
2023-01-23T20:05:33.155Z,97330.50
2023-01-23T20:08:02.274Z,97322.25
2023-01-23T20:10:30.156Z,97321.47
2023-01-23T20:12:57.858Z,97317.13
2023-01-23T20:15:26.911Z,97318.81
2023-01-23T20:17:55.479Z,97323.25
2023-01-23T20:20:24.069Z,97320.09
2023-01-23T20:22:52.087Z,97335.44
2023-01-23T20:25:21.532Z,97323.09
2023-01-23T20:27:49.618Z,97325.91
2023-01-23T20:30:20.017Z,97331.53
2023-01-23T20:32:47.974Z,97331.22
2023-01-23T20:35:15.822Z,97337.78
2023-01-23T20:37:43.590Z,97336.81
2023-01-23T20:40:12.917Z,97341.78
2023-01-23T20:42:42.083Z,97345.75
2023-01-23T20:45:10.831Z,97337.44
2023-01-23T20:47:38.792Z,97330.84
2023-01-23T20:50:07.465Z,97345.56
2023-01-23T20:52:52.891Z,97348.03
2023-01-23T20:55:20.927Z,97348.25
2023-01-23T20:58:04.135Z,97350.38
2023-01-23T21:00:31.848Z,97345.06
2023-01-23T21:02:59.764Z,97351.97
2023-01-23T21:05:27.632Z,97352.47
2023-01-23T21:07:55.462Z,97353.31
2023-01-23T21:10:23.351Z,97315.31
2023-01-23T21:12:52.451Z,97351.34
2023-01-23T21:15:20.600Z,97357.91
2023-01-23T21:17:48.548Z,97347.53
2023-01-23T21:20:17.049Z,97347.19
2023-01-23T21:22:44.797Z,97354.31
2023-01-23T21:25:13.119Z,97357.63
2023-01-23T21:27:40.884Z,97365.38
2023-01-23T21:30:11.672Z,97358.31
2023-01-23T21:32:39.912Z,97356.66
2023-01-23T21:35:08.126Z,97349.50
2023-01-23T21:37:36.399Z,97359.94
2023-01-23T21:40:04.778Z,97359.41
2023-01-23T21:42:32.508Z,97356.59
2023-01-23T21:45:00.303Z,97348.34
2023-01-23T21:47:29.470Z,97364.56
2023-01-23T21:49:57.190Z,97354.97
2023-01-23T21:52:25.070Z,97355.28
2023-01-23T21:54:54.311Z,97350.53
2023-01-23T21:57:23.120Z,97342.75
2023-01-23T22:00:04.728Z,97354.97
2023-01-23T22:02:34.013Z,97347.53
2023-01-23T22:05:01.853Z,97355.97
2023-01-23T22:07:29.639Z,97364.50
2023-01-23T22:09:57.454Z,97364.56
2023-01-23T22:12:27.278Z,97353.97
2023-01-23T22:14:55.831Z,97368.50
2023-01-23T22:17:23.732Z,97359.69
2023-01-23T22:19:52.965Z,97363.88
2023-01-23T22:22:20.792Z,97367.16
2023-01-23T22:24:48.615Z,97365.16
2023-01-23T22:27:16.415Z,97369.78
2023-01-23T22:29:44.599Z,97369.44
2023-01-23T22:32:12.406Z,97369.50
2023-01-23T22:34:40.208Z,97361.09
2023-01-23T22:37:09.344Z,97373.38
2023-01-23T22:39:37.078Z,97382.50
2023-01-23T22:42:05.329Z,97376.28
2023-01-23T22:44:33.144Z,97380.56
2023-01-23T22:47:01.073Z,97380.34
2023-01-23T22:49:28.921Z,97388.59
2023-01-23T22:51:56.644Z,97381.84
2023-01-23T22:54:25.792Z,97387.97
2023-01-23T22:56:53.495Z,97382.00
2023-01-23T22:59:21.275Z,97381.00
2023-01-23T23:01:49.336Z,97379.69
2023-01-23T23:04:17.040Z,97372.78
2023-01-23T23:06:45.062Z,97366.09
2023-01-23T23:09:12.940Z,97370.59
2023-01-23T23:11:42.301Z,97379.00
2023-01-23T23:14:11.804Z,97378.66
2023-01-23T23:16:40.817Z,97369.53
2023-01-23T23:19:09.707Z,97371.88
2023-01-23T23:21:38.642Z,97376.00
2023-01-23T23:24:08.991Z,97374.56
2023-01-23T23:26:37.194Z,97382.47
2023-01-23T23:29:06.476Z,97371.59
2023-01-23T23:31:34.611Z,97375.38
2023-01-23T23:34:02.635Z,97380.34
2023-01-23T23:36:31.116Z,97374.34
2023-01-23T23:38:59.010Z,97381.75
2023-01-23T23:41:26.972Z,97376.94
2023-01-23T23:43:54.719Z,97376.63
2023-01-23T23:46:23.964Z,97385.63
2023-01-23T23:48:52.119Z,97379.47
2023-01-23T23:51:22.851Z,97381.63
2023-01-23T23:53:51.267Z,97383.91
2023-01-23T23:56:21.971Z,97391.84
2023-01-23T23:58:50.121Z,97380.28
